Kirishima Maru No.5 — JD2506 — position and weather

sailwx.info

Track history (hours):
 
Tides and Currents Weather Stations Pressure Air Temp Water Temp Dewpoint Dewpoint Depression Visibility Wind Speed Wind Dir Waves Ship Positions

Kirishima Maru No.5

Last reported at 2017-Feb-18 09:13 UTC. Time now 2017-Feb-20 20:35 UTC.
Position N 35°00' E 139°35'.

Length 105 m; draft 6.4 m.

Type: Tanker. MMSI: 431000338.

Date/timePositionNaut miles runAvg speedWind from/ knotsBaromVisibWave heightAir tempDewpointWater temp
2017-Feb-18 09:13N 35°00' E 139°35'914.0
2017-Feb-18 08:33N 35°07' E 139°43'1212.1
2017-Feb-18 07:33N 35°19' E 139°43'1211.8
2017-Feb-18 06:33N 35°31' E 139°46'0 0.3
2017-Feb-18 05:33N 35°31' E 139°46'0 0.0
2017-Feb-18 04:30N 35°31' E 139°46'0 0.0
2017-Feb-18 03:33N 35°31' E 139°46'4 4.3
2017-Feb-18 02:33N 35°28' E 139°42'9 8.6
2017-Feb-18 01:33N 35°30' E 139°52'2 1.3
2017-Feb-18 00:23N 35°31' E 139°54'0 0.0
2017-Feb-17 23:17N 35°31' E 139°54'0 0.0
2017-Feb-17 22:32N 35°31' E 139°54'0 0.0
2017-Feb-17 21:29N 35°31' E 139°54'0 0.1
2017-Feb-17 20:32N 35°31' E 139°54'0 0.0
2017-Feb-17 19:32N 35°31' E 139°54'0 0.0
2017-Feb-17 18:32N 35°31' E 139°54'0 0.0
2017-Feb-17 17:32N 35°31' E 139°54'0 0.0
2017-Feb-17 16:32N 35°31' E 139°54'0 0.0
2017-Feb-17 15:32N 35°31' E 139°54'0 0.0
2017-Feb-17 14:26N 35°31' E 139°54'0 0.0
2017-Feb-17 13:32N 35°31' E 139°54'0 0.0
2017-Feb-17 12:32N 35°31' E 139°54'0 0.1
2017-Feb-17 11:33N 35°31' E 139°54'0 0.0
2017-Feb-17 10:33N 35°31' E 139°54'0 0.0
2017-Feb-17 09:33N 35°31' E 139°54'0 0.0
2017-Feb-17 08:33N 35°31' E 139°54'0 0.0
2017-Feb-17 07:33N 35°31' E 139°54'0 0.0
2017-Feb-17 06:33N 35°31' E 139°54'0 0.0
2017-Feb-17 05:33N 35°31' E 139°54'0 0.3
2017-Feb-17 04:33N 35°31' E 139°54'1212.2
2017-Feb-17 03:34N 35°21' E 139°45'1212.3
2017-Feb-17 02:33N 35°09' E 139°46'1413.2
2017-Feb-17 01:29N 34°55' E 139°45'  
2017-Feb-14 09:33N 35°22' E 139°42'10 9.6
2017-Feb-14 08:33N 35°31' E 139°46'0 0.0
2017-Feb-14 07:29N 35°31' E 139°46'0 0.0
2017-Feb-14 06:32N 35°31' E 139°46'0 0.0
2017-Feb-14 05:32N 35°31' E 139°46'0 0.0
2017-Feb-14 04:32N 35°31' E 139°46'4 4.1
2017-Feb-14 03:33N 35°29' E 139°42'5 4.9
2017-Feb-14 02:31N 35°24' E 139°45'0 0.0
2017-Feb-14 01:31N 35°24' E 139°45'0 0.0
2017-Feb-14 00:31N 35°24' E 139°45'0 0.0
2017-Feb-13 23:31N 35°24' E 139°45'0 0.0
2017-Feb-13 22:31N 35°24' E 139°45'0 0.0
2017-Feb-13 21:31N 35°24' E 139°45'0 0.0
2017-Feb-13 20:31N 35°24' E 139°45'0 0.0
2017-Feb-13 19:31N 35°24' E 139°45'0 0.1
2017-Feb-13 18:31N 35°24' E 139°45'4 4.2
2017-Feb-13 17:33N 35°21' E 139°44'1212.4
2017-Feb-13 16:33N 35°08' E 139°45'  
Track history (hours):
 
Tides and Currents Weather Stations Pressure Air Temp Water Temp Dewpoint Dewpoint Depression Visibility Wind Speed Wind Dir Waves Ship Positions

Kirishima Maru No.5

Last reported at 2017-Feb-18 09:13 UTC. Time now 2017-Feb-20 20:35 UTC.
Position N 35°00' E 139°35'.

Length 105 m; draft 6.4 m.

Type: Tanker. MMSI: 431000338.

Date/timePositionNaut miles runAvg speedWind from/ knotsBaromVisibWave heightAir tempDewpointWater temp
2017-Feb-18 09:13N 35°00' E 139°35'914.0
2017-Feb-18 08:33N 35°07' E 139°43'1212.1
2017-Feb-18 07:33N 35°19' E 139°43'1211.8
2017-Feb-18 06:33N 35°31' E 139°46'0 0.3
2017-Feb-18 05:33N 35°31' E 139°46'0 0.0
2017-Feb-18 04:30N 35°31' E 139°46'0 0.0
2017-Feb-18 03:33N 35°31' E 139°46'4 4.3
2017-Feb-18 02:33N 35°28' E 139°42'9 8.6
2017-Feb-18 01:33N 35°30' E 139°52'2 1.3
2017-Feb-18 00:23N 35°31' E 139°54'0 0.0
2017-Feb-17 23:17N 35°31' E 139°54'0 0.0
2017-Feb-17 22:32N 35°31' E 139°54'0 0.0
2017-Feb-17 21:29N 35°31' E 139°54'0 0.1
2017-Feb-17 20:32N 35°31' E 139°54'0 0.0
2017-Feb-17 19:32N 35°31' E 139°54'0 0.0
2017-Feb-17 18:32N 35°31' E 139°54'0 0.0
2017-Feb-17 17:32N 35°31' E 139°54'0 0.0
2017-Feb-17 16:32N 35°31' E 139°54'0 0.0
2017-Feb-17 15:32N 35°31' E 139°54'0 0.0
2017-Feb-17 14:26N 35°31' E 139°54'0 0.0
2017-Feb-17 13:32N 35°31' E 139°54'0 0.0
2017-Feb-17 12:32N 35°31' E 139°54'0 0.1
2017-Feb-17 11:33N 35°31' E 139°54'0 0.0
2017-Feb-17 10:33N 35°31' E 139°54'0 0.0
2017-Feb-17 09:33N 35°31' E 139°54'0 0.0
2017-Feb-17 08:33N 35°31' E 139°54'0 0.0
2017-Feb-17 07:33N 35°31' E 139°54'0 0.0
2017-Feb-17 06:33N 35°31' E 139°54'0 0.0
2017-Feb-17 05:33N 35°31' E 139°54'0 0.3
2017-Feb-17 04:33N 35°31' E 139°54'1212.2
2017-Feb-17 03:34N 35°21' E 139°45'1212.3
2017-Feb-17 02:33N 35°09' E 139°46'1413.2
2017-Feb-17 01:29N 34°55' E 139°45'  
2017-Feb-14 09:33N 35°22' E 139°42'10 9.6
2017-Feb-14 08:33N 35°31' E 139°46'0 0.0
2017-Feb-14 07:29N 35°31' E 139°46'0 0.0
2017-Feb-14 06:32N 35°31' E 139°46'0 0.0
2017-Feb-14 05:32N 35°31' E 139°46'0 0.0
2017-Feb-14 04:32N 35°31' E 139°46'4 4.1
2017-Feb-14 03:33N 35°29' E 139°42'5 4.9
2017-Feb-14 02:31N 35°24' E 139°45'0 0.0
2017-Feb-14 01:31N 35°24' E 139°45'0 0.0
2017-Feb-14 00:31N 35°24' E 139°45'0 0.0
2017-Feb-13 23:31N 35°24' E 139°45'0 0.0
2017-Feb-13 22:31N 35°24' E 139°45'0 0.0
2017-Feb-13 21:31N 35°24' E 139°45'0 0.0
2017-Feb-13 20:31N 35°24' E 139°45'0 0.0
2017-Feb-13 19:31N 35°24' E 139°45'0 0.1
2017-Feb-13 18:31N 35°24' E 139°45'4 4.2
2017-Feb-13 17:33N 35°21' E 139°44'1212.4
2017-Feb-13 16:33N 35°08' E 139°45'  

Dump ship's entire track history